気象予報士の航空気象 小雪が舞う

*All archives   *Admin

2010.02.12 (Fri)

小雪が舞う

 雪が心配された関東地方ですが、前回の降雪ほどはなかったようですね。


RJAA 111742Z 35010KT 4000 -SHRAGS BR FEW003 BKN005 BKN012 01/01 Q1011 RMK 1ST003 5ST005 7CU012 A2986 SNOW PELLETS


夜半に少し、METARには現れてはいませんが、ニュースによると各地でちらほら振っていたようです。





ブログランキングに参加しています。
にほんブログ村 環境ブログ 天気・気象学へ
にほんブログ村
応援クリックをおねがします。


以下、アフィリエイトサイトです。




スポンサーサイト
23:27  |  気象・天気  |  TB(0)  |  CM(0)  |  EDIT  |  Top↑

コメントを投稿する


 管理者だけに表示  (非公開コメント投稿可能)

▲PageTop

この記事のトラックバックURL

→http://weathereucalyptus.blog115.fc2.com/tb.php/391-53a3135d
この記事にトラックバックする(FC2ブログユーザー)

この記事へのトラックバック

▲PageTop

 | BLOGTOP |